createdAt,value
2018-02-22T00:01:26.008Z,24.70
2018-02-22T00:03:52.849Z,23.77
2018-02-22T00:06:20.152Z,24.77
2018-02-22T00:08:47.190Z,25.53
2018-02-22T00:11:14.359Z,25.83
2018-02-22T00:13:41.138Z,26.03
2018-02-22T00:16:09.044Z,24.00
2018-02-22T00:18:35.779Z,25.73
2018-02-22T00:21:02.669Z,22.27
2018-02-22T00:23:29.385Z,23.07
2018-02-22T00:25:56.111Z,26.10
2018-02-22T00:28:22.889Z,25.43
2018-02-22T00:30:49.693Z,24.43
2018-02-22T00:33:16.599Z,23.97
2018-02-22T00:35:43.492Z,22.90
2018-02-22T00:38:10.227Z,24.77
2018-02-22T00:40:36.964Z,23.70
2018-02-22T00:43:03.779Z,26.17
2018-02-22T00:45:30.470Z,24.10
2018-02-22T00:47:57.250Z,24.70
2018-02-22T00:50:23.961Z,25.70
2018-02-22T00:52:50.667Z,24.60
2018-02-22T00:55:17.471Z,24.67
2018-02-22T00:57:44.178Z,24.23
2018-02-22T01:00:10.919Z,25.30
2018-02-22T01:02:37.645Z,22.73
2018-02-22T01:05:04.334Z,23.00
2018-02-22T01:07:31.147Z,22.43
2018-02-22T01:09:58.038Z,24.57
2018-02-22T01:12:24.729Z,24.90
2018-02-22T01:14:51.501Z,24.20
2018-02-22T01:17:18.388Z,24.70
2018-02-22T01:19:45.135Z,24.13
2018-02-22T01:22:11.824Z,22.40
2018-02-22T01:24:38.532Z,24.20
2018-02-22T01:27:05.225Z,26.27
2018-02-22T01:29:32.050Z,23.83
2018-02-22T01:31:58.755Z,24.50
2018-02-22T01:34:25.520Z,24.83
2018-02-22T01:36:52.252Z,23.13
2018-02-22T01:39:19.005Z,24.30
2018-02-22T01:41:45.691Z,23.87
2018-02-22T01:44:12.380Z,24.70
2018-02-22T01:46:39.135Z,24.00
2018-02-22T01:49:05.873Z,25.63
2018-02-22T01:51:32.643Z,23.90
2018-02-22T01:53:59.498Z,24.87
2018-02-22T01:56:26.212Z,24.10
2018-02-22T01:58:52.895Z,24.00
2018-02-22T02:01:19.593Z,25.60
2018-02-22T02:03:46.642Z,23.83
2018-02-22T02:06:13.415Z,24.10
2018-02-22T02:08:40.118Z,23.00
2018-02-22T02:11:06.888Z,23.50
2018-02-22T02:13:33.585Z,22.10
2018-02-22T02:16:00.304Z,24.27
2018-02-22T02:18:27.081Z,23.03
2018-02-22T02:20:53.774Z,24.93
2018-02-22T02:23:20.766Z,23.63
2018-02-22T02:25:47.499Z,22.73
2018-02-22T02:28:14.269Z,25.17
2018-02-22T02:30:41.130Z,21.47
2018-02-22T02:33:07.850Z,23.53
2018-02-22T02:35:34.649Z,22.10
2018-02-22T02:38:01.373Z,23.93
2018-02-22T02:40:28.097Z,23.60
2018-02-22T02:42:54.951Z,24.43
2018-02-22T02:45:22.097Z,23.57
2018-02-22T02:47:48.908Z,22.97
2018-02-22T02:50:15.629Z,22.43
2018-02-22T02:52:42.340Z,22.27
2018-02-22T02:55:09.058Z,22.77
2018-02-22T02:57:35.775Z,22.70
2018-02-22T03:00:02.467Z,22.37
2018-02-22T03:02:29.785Z,22.17
2018-02-22T03:04:56.538Z,22.37
2018-02-22T03:07:23.262Z,22.63
2018-02-22T03:09:49.989Z,21.50
2018-02-22T03:12:16.754Z,21.77
2018-02-22T03:14:43.832Z,21.20
2018-02-22T03:17:10.517Z,23.17
2018-02-22T03:19:37.219Z,22.80
2018-02-22T03:22:04.177Z,22.90
2018-02-22T03:24:30.866Z,21.80
2018-02-22T03:26:57.574Z,20.33
2018-02-22T03:29:24.343Z,21.80
2018-02-22T03:31:51.057Z,20.20
2018-02-22T03:34:17.768Z,21.20
2018-02-22T03:36:44.493Z,22.80
2018-02-22T03:39:11.214Z,21.50
2018-02-22T03:41:37.939Z,21.50
2018-02-22T03:44:04.699Z,21.67
2018-02-22T03:46:31.401Z,23.07
2018-02-22T03:48:58.368Z,21.43
2018-02-22T03:51:25.246Z,21.00
2018-02-22T03:53:52.117Z,21.97
2018-02-22T03:56:18.806Z,19.90
2018-02-22T03:58:46.241Z,20.10
2018-02-22T04:01:13.717Z,20.70
2018-02-22T04:03:40.419Z,21.40
2018-02-22T04:06:07.162Z,20.00
2018-02-22T04:08:34.151Z,23.80
2018-02-22T04:11:00.877Z,18.87
2018-02-22T04:13:27.928Z,18.70
2018-02-22T04:15:54.732Z,19.97
2018-02-22T04:18:22.621Z,21.17
2018-02-22T04:20:49.387Z,20.20
2018-02-22T04:23:16.116Z,18.77
2018-02-22T04:25:42.907Z,19.23
2018-02-22T04:28:09.654Z,19.33
2018-02-22T04:30:36.499Z,20.43
2018-02-22T04:33:03.242Z,18.20
2018-02-22T04:35:29.976Z,20.50
2018-02-22T04:37:56.679Z,19.40
2018-02-22T04:40:23.417Z,19.13
2018-02-22T04:42:50.140Z,19.40
2018-02-22T04:45:16.847Z,19.03
2018-02-22T04:47:43.572Z,17.73
2018-02-22T04:50:10.403Z,18.80
2018-02-22T04:52:37.198Z,18.50
2018-02-22T04:55:03.919Z,18.43
2018-02-22T04:57:30.645Z,18.63
2018-02-22T04:59:57.365Z,16.90
2018-02-22T05:02:24.227Z,17.00
2018-02-22T05:04:50.924Z,19.33
2018-02-22T05:07:17.633Z,18.47
2018-02-22T05:09:44.330Z,18.37
2018-02-22T05:12:11.102Z,17.93
2018-02-22T05:14:37.961Z,18.13
2018-02-22T05:17:04.655Z,18.17
2018-02-22T05:19:31.377Z,17.87
2018-02-22T05:21:58.849Z,17.20
2018-02-22T05:24:25.672Z,19.07
2018-02-22T05:26:52.435Z,16.13
2018-02-22T05:29:19.257Z,17.90
2018-02-22T05:31:46.001Z,17.97
2018-02-22T05:34:12.734Z,18.33
2018-02-22T05:36:39.491Z,17.63
2018-02-22T05:39:06.290Z,18.07
2018-02-22T05:41:33.024Z,16.93
2018-02-22T05:43:59.801Z,17.70
2018-02-22T05:46:26.659Z,16.77
2018-02-22T05:48:54.284Z,17.57
2018-02-22T05:51:22.120Z,18.27
2018-02-22T05:53:49.046Z,17.27
2018-02-22T05:56:15.961Z,19.00
2018-02-22T05:58:42.668Z,17.15
2018-02-22T06:01:09.480Z,19.27
2018-02-22T06:03:36.715Z,17.23
2018-02-22T06:06:03.512Z,17.47
2018-02-22T06:08:30.236Z,18.13
2018-02-22T06:10:56.986Z,18.37
2018-02-22T06:13:23.731Z,19.17
2018-02-22T06:15:50.485Z,19.13
2018-02-22T06:18:17.243Z,17.63
2018-02-22T06:20:43.997Z,19.57
2018-02-22T06:23:11.215Z,18.67
2018-02-22T06:25:37.949Z,18.67
2018-02-22T06:28:04.704Z,18.42
2018-02-22T06:30:31.480Z,17.87
2018-02-22T06:32:58.244Z,17.07
2018-02-22T06:35:24.989Z,19.80
2018-02-22T06:37:51.864Z,17.60
2018-02-22T06:40:18.567Z,19.03
2018-02-22T06:42:45.328Z,19.20
2018-02-22T06:45:12.094Z,19.27
2018-02-22T06:47:38.926Z,16.53
2018-02-22T06:50:05.626Z,20.23
2018-02-22T06:52:32.428Z,18.77
2018-02-22T06:54:59.218Z,19.67
2018-02-22T06:57:25.927Z,19.87
2018-02-22T06:59:52.785Z,19.60
2018-02-22T07:02:19.563Z,19.62
2018-02-22T07:04:46.334Z,19.87
2018-02-22T07:07:13.112Z,22.30
2018-02-22T07:09:39.860Z,19.73
2018-02-22T07:12:06.618Z,21.83
2018-02-22T07:14:33.604Z,19.37
2018-02-22T07:17:00.484Z,20.07
2018-02-22T07:19:27.319Z,18.80
2018-02-22T07:21:54.078Z,19.67
2018-02-22T07:24:20.789Z,19.33
2018-02-22T07:26:47.623Z,20.20
2018-02-22T07:29:14.438Z,19.07
2018-02-22T07:31:41.151Z,22.90
2018-02-22T07:34:08.234Z,20.90
2018-02-22T07:36:34.930Z,21.27
2018-02-22T07:39:01.641Z,20.33
2018-02-22T07:41:28.420Z,19.93
2018-02-22T07:43:55.111Z,22.00
2018-02-22T07:46:21.884Z,20.70
2018-02-22T07:48:48.610Z,21.67
2018-02-22T07:51:15.341Z,22.17
2018-02-22T07:53:42.072Z,20.33
2018-02-22T07:56:08.780Z,21.70
2018-02-22T07:58:35.472Z,21.10
2018-02-22T08:01:02.195Z,19.87
2018-02-22T08:03:28.941Z,22.00
2018-02-22T08:05:55.650Z,21.37
2018-02-22T08:08:22.462Z,18.60
2018-02-22T08:10:49.427Z,21.10
2018-02-22T08:13:16.151Z,20.70
2018-02-22T08:15:42.868Z,21.30
2018-02-22T08:18:09.598Z,22.20
2018-02-22T08:20:36.411Z,21.47
2018-02-22T08:23:03.110Z,22.47
2018-02-22T08:25:29.916Z,21.90
2018-02-22T08:27:56.656Z,20.37
2018-02-22T08:30:23.411Z,21.60
2018-02-22T08:32:53.237Z,21.00
2018-02-22T08:35:19.959Z,20.37
2018-02-22T08:37:46.691Z,22.23
2018-02-22T08:40:13.523Z,20.73
2018-02-22T08:42:40.528Z,20.77
2018-02-22T08:45:07.246Z,20.50
2018-02-22T08:47:34.015Z,19.87
2018-02-22T08:50:00.709Z,21.57
2018-02-22T08:52:27.431Z,21.93
2018-02-22T08:54:54.137Z,20.40
2018-02-22T08:57:21.027Z,21.87
2018-02-22T08:59:47.865Z,20.90
2018-02-22T09:02:14.589Z,20.40
2018-02-22T09:04:41.266Z,20.73
2018-02-22T09:07:08.101Z,21.07
2018-02-22T09:09:34.918Z,21.53
2018-02-22T09:12:01.719Z,21.57
2018-02-22T09:14:29.363Z,20.00
2018-02-22T09:16:56.077Z,23.07
2018-02-22T09:19:22.921Z,20.57
2018-02-22T09:21:50.089Z,20.23
2018-02-22T09:24:16.821Z,21.50
2018-02-22T09:26:43.491Z,19.40
2018-02-22T09:29:10.289Z,19.77
2018-02-22T09:31:37.170Z,21.17
2018-02-22T09:34:03.908Z,23.07
2018-02-22T09:36:30.695Z,21.37
2018-02-22T09:38:57.350Z,20.40
2018-02-22T09:41:24.103Z,18.53
2018-02-22T09:43:50.946Z,21.47
2018-02-22T09:46:17.681Z,21.63
2018-02-22T09:48:44.499Z,20.53
2018-02-22T09:51:11.405Z,21.00
2018-02-22T09:53:38.110Z,20.13
2018-02-22T09:56:04.895Z,20.00
2018-02-22T09:58:31.682Z,20.63
2018-02-22T10:00:58.395Z,19.67
2018-02-22T10:03:25.170Z,20.33
2018-02-22T10:05:51.878Z,20.40
2018-02-22T10:08:18.577Z,21.20
2018-02-22T10:10:45.334Z,19.37
2018-02-22T10:13:12.138Z,18.60
2018-02-22T10:15:38.828Z,19.40
2018-02-22T10:18:05.540Z,19.93
2018-02-22T10:20:32.270Z,18.90
2018-02-22T10:22:59.011Z,19.17
2018-02-22T10:25:25.830Z,18.67
2018-02-22T10:27:52.570Z,20.00
2018-02-22T10:30:19.272Z,18.57
2018-02-22T10:32:46.051Z,18.33
2018-02-22T10:35:12.799Z,17.87
2018-02-22T10:37:39.577Z,19.20
2018-02-22T10:40:06.295Z,17.67
2018-02-22T10:42:33.051Z,17.90
2018-02-22T10:44:59.752Z,18.70
2018-02-22T10:47:26.466Z,16.73
2018-02-22T10:49:53.210Z,18.70
2018-02-22T10:52:19.973Z,16.37
2018-02-22T10:54:46.746Z,17.17
2018-02-22T10:57:13.435Z,16.67
2018-02-22T10:59:40.186Z,16.00
2018-02-22T11:02:12.789Z,15.97
2018-02-22T11:04:39.565Z,14.83
2018-02-22T11:07:06.696Z,14.43
2018-02-22T11:09:33.450Z,16.77
2018-02-22T11:12:00.263Z,15.20
2018-02-22T11:14:27.193Z,16.17
2018-02-22T11:16:53.942Z,15.40
2018-02-22T11:19:20.659Z,14.53
2018-02-22T11:21:48.129Z,14.93
2018-02-22T11:24:14.877Z,14.13
2018-02-22T11:26:41.618Z,13.83
2018-02-22T11:29:08.333Z,14.40
2018-02-22T11:31:35.060Z,13.97
2018-02-22T11:34:01.775Z,13.80
2018-02-22T11:36:28.554Z,13.93
2018-02-22T11:38:55.670Z,13.97
2018-02-22T11:41:22.447Z,11.63
2018-02-22T11:43:49.139Z,12.47
2018-02-22T11:46:15.818Z,11.63
2018-02-22T11:48:42.584Z,11.67
2018-02-22T11:51:09.428Z,11.47
2018-02-22T11:53:36.213Z,13.10
2018-02-22T11:56:02.942Z,10.90
2018-02-22T11:58:29.651Z,12.07
2018-02-22T12:00:56.474Z,10.40
2018-02-22T12:03:23.258Z,11.10
2018-02-22T12:05:49.973Z,11.23
2018-02-22T12:08:16.767Z,10.43
2018-02-22T12:10:43.466Z,9.30
2018-02-22T12:13:10.359Z,9.77
2018-02-22T12:15:37.110Z,9.13
2018-02-22T12:18:03.851Z,9.73
2018-02-22T12:20:30.530Z,8.63
2018-02-22T12:22:57.266Z,9.53
2018-02-22T12:25:24.509Z,8.70
2018-02-22T12:27:51.390Z,8.93
2018-02-22T12:30:18.139Z,8.73
2018-02-22T12:32:44.833Z,8.23
2018-02-22T12:35:11.555Z,7.60
2018-02-22T12:37:38.548Z,8.23
2018-02-22T12:40:05.254Z,7.53
2018-02-22T12:42:32.140Z,8.80
2018-02-22T12:44:58.890Z,7.90
2018-02-22T12:47:25.591Z,7.80
2018-02-22T12:49:52.405Z,7.23
2018-02-22T12:52:19.202Z,7.13
2018-02-22T12:54:45.952Z,6.73
2018-02-22T12:57:12.672Z,6.93
2018-02-22T12:59:39.451Z,7.43
2018-02-22T13:02:06.157Z,7.73
2018-02-22T13:04:33.195Z,6.43
2018-02-22T13:07:00.022Z,7.20
2018-02-22T13:09:26.851Z,6.90
2018-02-22T13:11:53.539Z,7.20
2018-02-22T13:14:20.274Z,6.60
2018-02-22T13:16:47.066Z,7.57
2018-02-22T13:19:14.088Z,7.00
2018-02-22T13:21:41.054Z,7.37
2018-02-22T13:24:07.862Z,6.80
2018-02-22T13:26:35.182Z,6.70
2018-02-22T13:29:01.977Z,6.47
2018-02-22T13:31:28.703Z,6.70
2018-02-22T13:34:01.348Z,5.50
2018-02-22T13:36:28.017Z,6.80
2018-02-22T13:39:00.557Z,7.10
2018-02-22T13:41:27.320Z,6.33
2018-02-22T13:43:59.916Z,7.50
2018-02-22T13:46:26.746Z,6.77
2018-02-22T13:48:59.278Z,6.47
2018-02-22T13:51:25.987Z,7.30
2018-02-22T13:53:52.742Z,6.77
2018-02-22T13:56:25.698Z,6.73
2018-02-22T13:58:52.561Z,5.97
2018-02-22T14:01:25.159Z,6.20
2018-02-22T14:03:52.329Z,6.67
2018-02-22T14:06:19.077Z,6.50
2018-02-22T14:08:45.810Z,6.60
2018-02-22T14:11:12.555Z,7.07
2018-02-22T14:13:39.254Z,7.57
2018-02-22T14:16:05.992Z,6.73
2018-02-22T14:18:32.776Z,5.30
2018-02-22T14:20:59.468Z,5.73
2018-02-22T14:23:27.395Z,6.03
2018-02-22T14:25:54.081Z,6.17
2018-02-22T14:28:20.885Z,5.57
2018-02-22T14:30:47.758Z,6.40
2018-02-22T14:33:14.501Z,5.90
2018-02-22T14:35:41.235Z,5.90
2018-02-22T14:38:08.020Z,5.70
2018-02-22T14:40:34.810Z,6.03
2018-02-22T14:43:01.707Z,6.17
2018-02-22T14:45:28.599Z,6.00
2018-02-22T14:47:55.279Z,5.67
2018-02-22T14:50:22.611Z,5.87
2018-02-22T14:52:49.328Z,5.93
2018-02-22T14:55:16.062Z,5.43
2018-02-22T14:57:42.836Z,5.70
2018-02-22T15:00:09.561Z,6.50
2018-02-22T15:02:36.397Z,5.40
2018-02-22T15:05:03.184Z,5.80
2018-02-22T15:07:29.924Z,5.57
2018-02-22T15:09:56.606Z,5.57
2018-02-22T15:12:23.420Z,5.93
2018-02-22T15:14:50.152Z,5.40
2018-02-22T15:17:16.859Z,5.87
2018-02-22T15:19:43.626Z,5.10
2018-02-22T15:22:10.452Z,5.77
2018-02-22T15:24:37.333Z,5.93
2018-02-22T15:27:04.074Z,5.17
2018-02-22T15:29:30.779Z,5.87
2018-02-22T15:31:57.516Z,5.63
2018-02-22T15:34:24.294Z,5.50
2018-02-22T15:36:50.997Z,5.60
2018-02-22T15:39:17.715Z,6.00
2018-02-22T15:41:44.392Z,5.30
2018-02-22T15:44:11.097Z,5.00
2018-02-22T15:46:37.962Z,6.70
2018-02-22T15:49:04.758Z,5.20
2018-02-22T15:51:31.481Z,5.60
2018-02-22T15:53:58.222Z,5.60
2018-02-22T15:56:25.004Z,5.60
2018-02-22T15:58:51.704Z,5.70
2018-02-22T16:01:18.505Z,4.83
2018-02-22T16:03:45.196Z,5.70
2018-02-22T16:06:11.965Z,4.83
2018-02-22T16:08:38.820Z,5.83
2018-02-22T16:11:05.636Z,5.83
2018-02-22T16:13:32.552Z,5.63
2018-02-22T16:15:59.549Z,6.27
2018-02-22T16:18:26.474Z,6.60
2018-02-22T16:20:53.156Z,6.30
2018-02-22T16:23:19.866Z,5.80
2018-02-22T16:25:46.621Z,6.43
2018-02-22T16:28:13.317Z,5.30
2018-02-22T16:30:40.022Z,5.93
2018-02-22T16:33:06.833Z,5.40
2018-02-22T16:35:33.572Z,6.03
2018-02-22T16:38:00.417Z,6.20
2018-02-22T16:40:28.089Z,6.77
2018-02-22T16:42:55.601Z,6.60
2018-02-22T16:45:22.337Z,6.23
2018-02-22T16:47:49.048Z,7.23
2018-02-22T16:50:15.813Z,6.67
2018-02-22T16:52:42.915Z,6.90
2018-02-22T16:55:09.604Z,6.67
2018-02-22T16:57:36.315Z,6.93
2018-02-22T17:00:03.075Z,6.73
2018-02-22T17:02:29.892Z,6.60
2018-02-22T17:04:57.487Z,6.80
2018-02-22T17:07:24.192Z,6.77
2018-02-22T17:09:50.879Z,7.30
2018-02-22T17:12:17.672Z,7.43
2018-02-22T17:14:44.344Z,6.50
2018-02-22T17:17:11.087Z,7.47
2018-02-22T17:19:37.850Z,6.40
2018-02-22T17:22:04.677Z,7.07
2018-02-22T17:24:31.589Z,7.60
2018-02-22T17:27:04.298Z,7.73
2018-02-22T17:29:36.773Z,6.40
2018-02-22T17:32:09.469Z,7.50
2018-02-22T17:34:36.236Z,6.60
2018-02-22T17:37:03.651Z,7.60
2018-02-22T17:39:45.246Z,7.40
2018-02-22T17:42:12.094Z,7.30
2018-02-22T17:44:38.978Z,7.73
2018-02-22T17:47:05.776Z,6.93
2018-02-22T17:49:32.787Z,7.40
2018-02-22T17:51:59.540Z,7.90
2018-02-22T17:54:26.321Z,7.50
2018-02-22T17:56:53.164Z,7.90
2018-02-22T17:59:20.247Z,9.20
2018-02-22T18:01:47.039Z,7.70
2018-02-22T18:04:13.898Z,7.10
2018-02-22T18:06:40.919Z,8.43
2018-02-22T18:09:08.732Z,8.60
2018-02-22T18:11:35.482Z,8.10
2018-02-22T18:14:02.282Z,8.47
2018-02-22T18:16:29.073Z,8.93
2018-02-22T18:18:55.867Z,8.70
2018-02-22T18:21:22.653Z,8.03
2018-02-22T18:23:49.594Z,8.43
2018-02-22T18:26:16.330Z,8.13
2018-02-22T18:28:43.034Z,8.63
2018-02-22T18:31:09.896Z,8.97
2018-02-22T18:33:36.808Z,8.37
2018-02-22T18:36:03.663Z,8.13
2018-02-22T18:38:36.252Z,7.80
2018-02-22T18:41:03.135Z,8.47
2018-02-22T18:43:45.504Z,8.90
2018-02-22T18:46:12.329Z,8.80
2018-02-22T18:48:39.067Z,9.20
2018-02-22T18:51:05.809Z,8.77
2018-02-22T18:53:32.781Z,9.50
2018-02-22T18:55:59.599Z,9.70
2018-02-22T18:58:26.494Z,9.67
2018-02-22T19:00:53.234Z,9.80
2018-02-22T19:03:20.079Z,10.47
2018-02-22T19:08:22.178Z,10.93
2018-02-22T19:10:49.064Z,10.30
2018-02-22T19:13:15.843Z,8.93
2018-02-22T19:15:42.596Z,10.23
2018-02-22T19:18:09.405Z,10.27
2018-02-22T19:20:36.180Z,10.13
2018-02-22T19:23:03.480Z,10.27
2018-02-22T19:25:30.384Z,10.43
2018-02-22T19:27:57.161Z,10.57
2018-02-22T19:30:24.614Z,10.20
2018-02-22T19:32:51.558Z,10.67
2018-02-22T19:35:18.378Z,10.17
2018-02-22T19:37:45.798Z,10.90
2018-02-22T19:40:12.697Z,10.43
2018-02-22T19:42:39.406Z,10.70
2018-02-22T19:45:06.237Z,9.63
2018-02-22T19:47:33.015Z,10.37
2018-02-22T19:50:00.055Z,11.83
2018-02-22T19:52:27.147Z,10.87
2018-02-22T19:54:54.250Z,10.90
2018-02-22T19:57:22.235Z,10.73
2018-02-22T19:59:49.269Z,10.77
2018-02-22T20:04:52.257Z,10.57
2018-02-22T20:07:23.121Z,10.80
2018-02-22T20:09:53.861Z,9.90
2018-02-22T20:12:20.810Z,9.87
2018-02-22T20:14:49.610Z,10.90
2018-02-22T20:17:16.443Z,11.67
2018-02-22T20:19:43.237Z,10.43
2018-02-22T20:22:10.421Z,9.77
2018-02-22T20:24:37.222Z,11.03
2018-02-22T20:27:03.962Z,9.70
2018-02-22T20:29:30.670Z,11.33
2018-02-22T20:31:58.122Z,11.07
2018-02-22T20:34:24.952Z,10.93
2018-02-22T20:36:51.667Z,11.47
2018-02-22T20:39:18.384Z,10.53
2018-02-22T20:41:45.070Z,10.53
2018-02-22T20:44:11.863Z,11.30
2018-02-22T20:46:39.205Z,10.30
2018-02-22T20:49:05.935Z,11.47
2018-02-22T20:51:33.434Z,10.73
2018-02-22T20:54:00.189Z,10.73
2018-02-22T20:56:27.157Z,10.70
2018-02-22T20:58:54.006Z,11.57
2018-02-22T21:01:20.768Z,9.90
2018-02-22T21:03:47.637Z,11.60
2018-02-22T21:06:14.459Z,10.47
2018-02-22T21:08:41.868Z,10.30
2018-02-22T21:11:08.685Z,11.30
2018-02-22T21:13:36.439Z,10.83
2018-02-22T21:16:03.464Z,11.40
2018-02-22T21:18:30.212Z,11.17
2018-02-22T21:20:56.974Z,11.60
2018-02-22T21:23:23.770Z,12.10
2018-02-22T21:25:50.459Z,11.03
2018-02-22T21:28:17.158Z,11.30
2018-02-22T21:30:43.902Z,10.03
2018-02-22T21:33:10.781Z,11.60
2018-02-22T21:35:37.546Z,10.87
2018-02-22T21:38:04.351Z,11.23
2018-02-22T21:40:31.683Z,10.50
2018-02-22T21:42:58.412Z,11.07
2018-02-22T21:45:25.168Z,10.90
2018-02-22T21:47:52.016Z,11.70
2018-02-22T21:50:18.945Z,11.07
2018-02-22T21:52:45.714Z,10.50
2018-02-22T21:55:13.549Z,9.70
2018-02-22T21:57:40.422Z,10.70
2018-02-22T22:00:09.396Z,10.50
2018-02-22T22:02:39.821Z,10.17
2018-02-22T22:05:06.607Z,10.63
2018-02-22T22:07:33.358Z,10.60
2018-02-22T22:10:00.164Z,10.00
2018-02-22T22:12:26.952Z,10.20
2018-02-22T22:14:53.651Z,11.20
2018-02-22T22:17:20.837Z,9.50
2018-02-22T22:19:48.582Z,10.60
2018-02-22T22:22:15.267Z,9.43
2018-02-22T22:24:42.295Z,10.80
2018-02-22T22:27:09.338Z,10.43
2018-02-22T22:29:36.051Z,10.33
2018-02-22T22:32:02.805Z,8.37
2018-02-22T22:34:29.538Z,10.00
2018-02-22T22:36:56.387Z,9.07
2018-02-22T22:39:23.271Z,10.67
2018-02-22T22:41:50.286Z,9.60
2018-02-22T22:44:17.025Z,8.47
2018-02-22T22:46:43.827Z,9.97
2018-02-22T22:49:11.825Z,9.13
2018-02-22T22:51:39.005Z,8.43
2018-02-22T22:54:06.520Z,10.00
2018-02-22T22:56:33.406Z,9.40
2018-02-22T22:59:00.390Z,9.57
2018-02-22T23:01:27.079Z,8.67
2018-02-22T23:03:53.797Z,9.53
2018-02-22T23:06:20.603Z,8.60
2018-02-22T23:08:47.433Z,9.23
2018-02-22T23:11:14.312Z,8.60
2018-02-22T23:13:41.018Z,9.17
2018-02-22T23:16:07.743Z,8.37
2018-02-22T23:18:34.425Z,9.27
2018-02-22T23:21:01.149Z,8.70
2018-02-22T23:23:28.223Z,9.03
2018-02-22T23:25:55.026Z,7.73
2018-02-22T23:28:21.905Z,9.50
2018-02-22T23:30:48.602Z,9.23
2018-02-22T23:33:15.430Z,9.20
2018-02-22T23:35:42.995Z,10.30
2018-02-22T23:38:09.699Z,9.03
2018-02-22T23:40:56.136Z,9.03
2018-02-22T23:43:22.877Z,9.00
2018-02-22T23:45:51.279Z,9.50
2018-02-22T23:48:19.148Z,7.80
2018-02-22T23:50:45.845Z,8.87
2018-02-22T23:53:12.758Z,9.87
2018-02-22T23:55:39.490Z,8.93
2018-02-22T23:58:06.206Z,8.53
